Time;durP1;ratioP1;P1;durP2;ratioP2;P2;SDS_P1;SDS_P2;PMS_P1;PMS_P2;Temp;Humidity;BMP_temperature;BMP_pressure;BME280_temperature;BME280_humidity;BME280_pressure;Samples;Min_cycle;Max_cycle;Signal;HPM_P1;HPM_P2
2020/12/26 00:00:19;;;;;;;19.02;5.63;;;0.20;84.60;;;;;;5051885;28;20044;-60
2020/12/26 00:02:46;;;;;;;10.32;4.88;;;0.10;84.80;;;;;;5052019;28;20061;-60
2020/12/26 00:05:12;;;;;;;10.25;5.15;;;0.20;84.20;;;;;;5051702;28;20040;-59
2020/12/26 00:07:37;;;;;;;6.95;4.57;;;0.20;83.90;;;;;;5051642;28;20025;-60
2020/12/26 00:10:04;;;;;;;7.90;4.90;;;0.40;83.60;;;;;;5033962;28;20043;-60
2020/12/26 00:12:29;;;;;;;16.52;5.18;;;0.40;83.20;;;;;;5052070;28;20116;-59
2020/12/26 00:14:55;;;;;;;14.63;5.07;;;0.50;82.60;;;;;;5051353;28;20112;-58
2020/12/26 00:17:21;;;;;;;12.23;5.65;;;0.40;83.50;;;;;;5051582;28;20041;-59
2020/12/26 00:19:46;;;;;;;11.60;5.30;;;0.40;83.20;;;;;;5051457;28;20028;-61
2020/12/26 00:22:12;;;;;;;11.88;6.00;;;0.20;83.80;;;;;;5051436;28;20041;-61
2020/12/26 00:24:38;;;;;;;12.93;5.45;;;0.20;84.20;;;;;;5051714;28;20072;-60
2020/12/26 00:27:03;;;;;;;6.20;4.30;;;0.30;84.00;;;;;;5051257;28;20029;-60
2020/12/26 00:29:29;;;;;;;6.65;5.05;;;0.20;84.20;;;;;;5051485;28;20379;-60
2020/12/26 00:31:54;;;;;;;9.82;5.05;;;0.20;83.90;;;;;;5051593;28;20021;-61
2020/12/26 00:34:21;;;;;;;11.50;5.22;;;0.10;84.10;;;;;;5050964;28;20063;-58
2020/12/26 00:36:47;;;;;;;12.68;5.20;;;0.20;84.30;;;;;;5033789;28;20029;-60
2020/12/26 00:39:13;;;;;;;6.55;4.65;;;0.20;83.90;;;;;;5053533;28;20048;-62
2020/12/26 00:41:38;;;;;;;8.88;4.70;;;0.20;84.50;;;;;;5055367;28;20170;-59
2020/12/26 00:44:04;;;;;;;9.00;5.00;;;0.10;84.30;;;;;;5053854;28;20056;-62
2020/12/26 00:46:29;;;;;;;8.52;4.47;;;0.20;84.20;;;;;;5055579;28;20116;-60
2020/12/26 00:48:55;;;;;;;9.13;5.32;;;0.00;84.60;;;;;;5068071;28;20028;-61
2020/12/26 00:51:21;;;;;;;7.72;4.50;;;0.00;84.70;;;;;;5075624;28;20032;-62
2020/12/26 00:53:46;;;;;;;10.40;4.40;;;0.10;84.30;;;;;;5067354;28;20503;-59
2020/12/26 00:56:12;;;;;;;9.40;5.07;;;0.10;84.30;;;;;;5037545;28;20029;-59
2020/12/26 00:58:37;;;;;;;11.27;5.35;;;0.30;83.70;;;;;;5055559;28;20041;-60
2020/12/26 01:01:03;;;;;;;8.02;4.65;;;0.20;84.10;;;;;;5037290;28;20557;-62
2020/12/26 01:03:29;;;;;;;9.10;4.43;;;0.20;83.80;;;;;;5055180;28;20053;-62
2020/12/26 01:05:55;;;;;;;7.97;4.50;;;0.00;84.40;;;;;;5054685;28;20120;-62
2020/12/26 01:08:21;;;;;;;9.88;4.78;;;0.00;84.60;;;;;;5054509;28;20039;-60
2020/12/26 01:10:46;;;;;;;7.18;4.60;;;-0.10;84.90;;;;;;5036853;28;20079;-61
2020/12/26 01:13:12;;;;;;;9.27;5.03;;;0.00;84.20;;;;;;5037259;28;20037;-61
2020/12/26 01:15:38;;;;;;;10.13;4.80;;;0.00;84.80;;;;;;5054415;28;20056;-60
2020/12/26 01:18:03;;;;;;;16.08;5.32;;;0.10;84.50;;;;;;5036864;28;20124;-62
2020/12/26 01:20:30;;;;;;;12.93;5.75;;;0.10;84.60;;;;;;5036815;28;20060;-59
2020/12/26 01:22:55;;;;;;;12.55;4.72;;;-0.10;84.80;;;;;;5054553;28;20028;-60
2020/12/26 01:25:21;;;;;;;11.80;5.07;;;-0.10;84.70;;;;;;5053974;28;20124;-60
2020/12/26 01:27:46;;;;;;;13.40;5.68;;;0.00;85.10;;;;;;5054537;28;20040;-62
2020/12/26 01:30:12;;;;;;;9.32;5.40;;;-0.10;85.10;;;;;;5054545;28;20025;-59
2020/12/26 01:32:38;;;;;;;8.52;5.85;;;-0.10;84.80;;;;;;5054588;28;20029;-59
2020/12/26 01:35:04;;;;;;;9.50;5.47;;;-0.20;85.50;;;;;;5054294;28;20468;-60
2020/12/26 01:37:30;;;;;;;10.25;5.30;;;-0.10;85.20;;;;;;5054986;28;20090;-59
2020/12/26 01:39:56;;;;;;;7.45;4.82;;;-0.10;85.10;;;;;;5062313;28;20071;-62
2020/12/26 01:42:21;;;;;;;7.13;4.97;;;0.00;84.70;;;;;;5064040;28;20029;-61
2020/12/26 01:44:47;;;;;;;8.23;5.05;;;-0.20;85.30;;;;;;5060699;28;20476;-58
2020/12/26 01:47:14;;;;;;;10.00;5.10;;;0.00;85.00;;;;;;5057653;28;20021;-60
2020/12/26 01:49:41;;;;;;;10.65;4.82;;;-0.10;85.10;;;;;;5072174;28;20024;-62
2020/12/26 01:52:09;;;;;;;7.78;5.18;;;0.00;84.90;;;;;;5074715;28;20024;-60
2020/12/26 01:54:35;;;;;;;11.15;5.20;;;-0.10;85.20;;;;;;5060114;28;20044;-61
2020/12/26 01:57:02;;;;;;;7.40;5.10;;;-0.20;85.60;;;;;;5054587;28;20037;-60
2020/12/26 01:59:28;;;;;;;8.90;4.95;;;-0.20;85.50;;;;;;5054177;28;20025;-60
2020/12/26 02:01:57;;;;;;;14.30;5.10;;;-0.10;85.60;;;;;;5054402;28;20029;-59
2020/12/26 02:04:24;;;;;;;8.88;5.50;;;-0.10;85.40;;;;;;5053672;28;20029;-62
2020/12/26 02:06:55;;;;;;;10.60;6.05;;;0.10;84.80;;;;;;5053994;28;20028;-61
2020/12/26 02:09:23;;;;;;;6.65;4.78;;;0.00;84.90;;;;;;5053988;28;20048;-61
2020/12/26 02:11:49;;;;;;;10.48;5.43;;;0.10;84.60;;;;;;5054205;28;20032;-62
2020/12/26 02:14:14;;;;;;;9.40;5.70;;;0.10;84.50;;;;;;5053596;28;20037;-59
2020/12/26 02:16:48;;;;;;;11.18;5.22;;;0.20;84.50;;;;;;5053841;28;20622;-59
2020/12/26 02:19:15;;;;;;;7.90;5.25;;;0.10;84.60;;;;;;5054467;28;20037;-61
2020/12/26 02:21:41;;;;;;;8.18;5.35;;;0.30;83.90;;;;;;5053748;28;20027;-61
2020/12/26 02:24:08;;;;;;;10.27;5.60;;;0.30;83.80;;;;;;5053263;28;20029;-59
2020/12/26 02:26:34;;;;;;;11.73;6.07;;;0.30;84.10;;;;;;5053216;28;20072;-62
2020/12/26 02:29:00;;;;;;;8.32;5.70;;;0.30;84.00;;;;;;5056922;28;20045;-61
2020/12/26 02:31:25;;;;;;;8.40;5.75;;;0.30;83.90;;;;;;5035744;28;20037;-61
2020/12/26 02:33:51;;;;;;;11.90;5.35;;;0.30;83.60;;;;;;5052969;28;20480;-59
2020/12/26 02:36:17;;;;;;;10.70;6.30;;;0.30;83.90;;;;;;5053013;28;20537;-60
2020/12/26 02:38:43;;;;;;;13.57;6.35;;;0.30;83.60;;;;;;5053439;28;20025;-59
2020/12/26 02:41:09;;;;;;;9.77;6.50;;;0.30;83.70;;;;;;5053035;28;20040;-59
2020/12/26 02:43:35;;;;;;;9.82;7.00;;;0.30;83.60;;;;;;5052517;28;20032;-59
2020/12/26 02:46:01;;;;;;;10.68;6.07;;;0.30;83.70;;;;;;5051777;28;20037;-58
2020/12/26 02:48:27;;;;;;;9.60;6.25;;;0.10;84.30;;;;;;5061641;28;20082;-58
2020/12/26 02:50:53;;;;;;;9.90;6.78;;;0.10;84.40;;;;;;5056003;28;20423;-60
2020/12/26 02:53:19;;;;;;;12.35;6.70;;;0.00;85.00;;;;;;5051216;28;20483;-59
2020/12/26 02:55:44;;;;;;;12.15;6.60;;;0.00;85.00;;;;;;5034830;28;20036;-60
2020/12/26 02:58:10;;;;;;;13.18;6.60;;;0.00;84.80;;;;;;5052739;28;20083;-62
2020/12/26 03:00:36;;;;;;;14.85;7.28;;;0.10;84.80;;;;;;5052334;28;20025;-58
2020/12/26 03:03:03;;;;;;;12.50;6.95;;;0.00;85.00;;;;;;5052177;28;20095;-59
2020/12/26 03:05:28;;;;;;;14.60;6.97;;;-0.10;84.90;;;;;;5051920;28;20033;-60
2020/12/26 03:07:54;;;;;;;11.90;6.80;;;-0.10;85.30;;;;;;5052901;28;20087;-57
2020/12/26 03:10:19;;;;;;;10.30;6.68;;;-0.10;85.30;;;;;;5052910;28;20156;-60
2020/12/26 03:12:45;;;;;;;12.65;7.68;;;0.00;85.40;;;;;;5034538;28;20025;-61
2020/12/26 03:15:11;;;;;;;12.95;7.38;;;-0.10;85.40;;;;;;5052284;28;20017;-62
2020/12/26 03:17:36;;;;;;;12.25;7.88;;;0.00;85.20;;;;;;5052233;28;20029;-62
2020/12/26 03:20:04;;;;;;;13.18;8.20;;;0.00;84.90;;;;;;5051881;28;20029;-61
2020/12/26 03:22:30;;;;;;;11.13;8.30;;;-0.10;85.30;;;;;;5052290;28;20029;-60
2020/12/26 03:24:56;;;;;;;13.73;9.23;;;-0.10;85.40;;;;;;5051819;28;20037;-61
2020/12/26 03:27:22;;;;;;;13.30;8.73;;;-0.10;85.90;;;;;;5052534;28;20033;-60
2020/12/26 03:29:49;;;;;;;13.93;8.70;;;-0.30;86.40;;;;;;5052214;28;20158;-62
2020/12/26 03:32:14;;;;;;;15.07;8.75;;;-0.30;87.30;;;;;;5052093;28;20033;-61
2020/12/26 03:34:40;;;;;;;16.38;10.05;;;-0.10;86.30;;;;;;5051775;28;20033;-57
2020/12/26 03:37:06;;;;;;;14.82;8.90;;;-0.40;87.10;;;;;;5052448;28;20048;-61
2020/12/26 03:39:35;;;;;;;12.88;9.27;;;-0.40;87.80;;;;;;5052652;28;20509;-59
2020/12/26 03:42:05;;;;;;;17.02;8.73;;;-0.30;87.20;;;;;;5052597;28;20028;-60
2020/12/26 03:44:30;;;;;;;14.75;9.63;;;-0.30;87.20;;;;;;5050424;28;20091;-57
2020/12/26 03:46:56;;;;;;;13.25;8.90;;;-0.20;86.50;;;;;;5052643;28;20523;-59
2020/12/26 03:49:23;;;;;;;14.32;9.98;;;-0.20;86.50;;;;;;5055016;28;20104;-60
2020/12/26 03:51:48;;;;;;;13.45;9.35;;;0.00;85.90;;;;;;5054820;28;20032;-59
2020/12/26 03:54:14;;;;;;;13.70;9.15;;;-0.10;85.90;;;;;;5053948;28;20400;-59
2020/12/26 03:56:39;;;;;;;18.75;10.23;;;0.00;85.90;;;;;;5052625;28;20094;-60
2020/12/26 03:59:05;;;;;;;11.77;8.80;;;0.10;85.60;;;;;;5051912;28;20032;-61
2020/12/26 04:01:30;;;;;;;18.60;9.82;;;0.00;85.40;;;;;;5052138;28;20116;-61
2020/12/26 04:03:56;;;;;;;14.98;9.48;;;0.00;85.70;;;;;;5051416;28;20045;-60
2020/12/26 04:06:21;;;;;;;15.27;10.18;;;0.00;85.90;;;;;;5051710;28;20040;-63
2020/12/26 04:08:47;;;;;;;17.98;10.43;;;0.00;85.50;;;;;;5051977;28;20041;-59
2020/12/26 04:11:12;;;;;;;19.40;10.73;;;-0.10;86.10;;;;;;5051471;28;20033;-60
2020/12/26 04:13:38;;;;;;;17.25;10.65;;;-0.10;86.10;;;;;;5051145;28;20068;-62
2020/12/26 04:16:04;;;;;;;15.38;10.55;;;-0.20;86.30;;;;;;5051354;28;20033;-57
2020/12/26 04:18:29;;;;;;;15.75;10.32;;;-0.10;86.10;;;;;;5037955;28;20071;-61
2020/12/26 04:20:55;;;;;;;15.13;10.10;;;-0.10;86.20;;;;;;5053859;28;20494;-59
2020/12/26 04:23:20;;;;;;;17.52;10.48;;;-0.10;85.60;;;;;;5051734;28;20047;-61
2020/12/26 04:25:46;;;;;;;17.58;10.43;;;-0.10;85.50;;;;;;5045882;28;20088;-63
2020/12/26 04:28:12;;;;;;;17.88;11.10;;;0.00;85.40;;;;;;5030318;28;20033;-59
2020/12/26 04:30:37;;;;;;;15.65;11.40;;;0.00;85.20;;;;;;5031270;28;20115;-62
2020/12/26 04:33:03;;;;;;;18.70;12.93;;;-0.20;86.00;;;;;;5031407;28;20476;-60
2020/12/26 04:35:28;;;;;;;20.02;12.02;;;-0.20;86.30;;;;;;5031088;28;20075;-61
2020/12/26 04:37:54;;;;;;;16.13;11.52;;;-0.30;86.60;;;;;;5031285;28;20112;-60
2020/12/26 04:40:21;;;;;;;17.10;11.38;;;-0.30;86.70;;;;;;5031442;28;20030;-58
2020/12/26 04:42:48;;;;;;;19.85;12.32;;;-0.40;87.10;;;;;;5031466;28;20392;-59
2020/12/26 04:45:13;;;;;;;18.83;12.73;;;-0.40;86.90;;;;;;5029996;28;20061;-59
2020/12/26 04:47:53;;;;;;;18.90;11.88;;;-0.40;87.00;;;;;;5036144;28;20064;-60
2020/12/26 04:50:26;;;;;;;18.27;11.98;;;-0.30;86.30;;;;;;5073134;28;20056;-61
2020/12/26 04:52:59;;;;;;;17.77;11.32;;;-0.40;86.70;;;;;;5075363;28;20036;-61
2020/12/26 04:55:28;;;;;;;16.05;11.27;;;-0.30;86.60;;;;;;5037410;28;20113;-62
2020/12/26 04:58:04;;;;;;;22.30;11.40;;;-0.30;86.90;;;;;;5019264;28;20034;-61
2020/12/26 05:00:32;;;;;;;17.35;10.93;;;-0.30;87.10;;;;;;5036816;28;20087;-62
2020/12/26 05:03:03;;;;;;;16.85;10.80;;;-0.20;86.70;;;;;;5037813;28;20072;-61
2020/12/26 05:05:34;;;;;;;17.00;11.13;;;-0.20;86.30;;;;;;5031415;28;20029;-59
2020/12/26 05:08:12;;;;;;;18.45;11.50;;;0.00;86.00;;;;;;5031722;28;20030;-59
2020/12/26 05:10:39;;;;;;;17.02;11.32;;;-0.10;86.00;;;;;;5031333;28;20083;-62
2020/12/26 05:13:06;;;;;;;18.48;11.80;;;-0.20;86.20;;;;;;5013839;28;20436;-55
2020/12/26 05:15:32;;;;;;;19.35;12.10;;;-0.30;86.90;;;;;;5030905;28;20029;-58
2020/12/26 05:17:58;;;;;;;18.55;11.73;;;-0.20;86.70;;;;;;5013253;28;20385;-61
2020/12/26 05:20:25;;;;;;;17.25;11.98;;;-0.20;86.30;;;;;;5031174;28;20487;-57
2020/12/26 05:23:11;;;;;;;17.50;11.75;;;-0.30;87.40;;;;;;5031303;28;20056;-57
2020/12/26 05:25:50;;;;;;;21.60;12.65;;;-0.40;87.70;;;;;;5036770;28;20033;-57
2020/12/26 05:28:21;;;;;;;22.58;12.25;;;-0.30;87.60;;;;;;5054237;28;20078;-61
2020/12/26 05:30:51;;;;;;;20.52;13.55;;;-0.30;87.40;;;;;;5054495;28;20044;-58
2020/12/26 05:33:18;;;;;;;20.08;12.57;;;-0.30;87.60;;;;;;5054217;28;20032;-58
2020/12/26 05:35:46;;;;;;;23.63;12.57;;;-0.10;86.80;;;;;;5054159;28;20384;-58
2020/12/26 05:38:22;;;;;;;19.60;12.35;;;0.00;86.40;;;;;;5054263;28;20025;-62
2020/12/26 05:40:56;;;;;;;20.90;12.80;;;0.00;86.50;;;;;;5054078;28;20025;-58
2020/12/26 05:43:27;;;;;;;19.17;12.85;;;0.00;86.30;;;;;;5036723;28;20040;-59
2020/12/26 05:45:53;;;;;;;20.38;12.48;;;0.10;85.90;;;;;;5053681;28;20118;-60
2020/12/26 05:48:21;;;;;;;20.45;12.10;;;0.10;86.30;;;;;;5061539;28;20036;-59
2020/12/26 05:50:47;;;;;;;19.77;12.15;;;0.10;85.80;;;;;;5074168;28;20376;-59
2020/12/26 05:53:14;;;;;;;33.65;12.90;;;0.20;85.70;;;;;;5071307;28;21802;-58
2020/12/26 05:55:46;;;;;;;18.10;13.13;;;0.20;85.70;;;;;;5053964;28;20466;-60
2020/12/26 05:58:23;;;;;;;19.85;12.18;;;0.10;86.00;;;;;;5053816;28;20040;-59
2020/12/26 06:00:48;;;;;;;20.75;12.10;;;0.20;86.20;;;;;;5053800;28;20025;-61
2020/12/26 06:03:21;;;;;;;22.77;11.98;;;0.20;85.70;;;;;;5054155;28;20124;-58
2020/12/26 06:05:47;;;;;;;18.63;11.98;;;0.40;85.10;;;;;;5054881;28;20063;-61
2020/12/26 06:08:17;;;;;;;17.45;12.15;;;0.30;85.40;;;;;;5054239;28;20373;-59
2020/12/26 06:10:49;;;;;;;17.80;11.57;;;0.20;85.40;;;;;;5054906;28;20543;-57
2020/12/26 06:13:17;;;;;;;19.13;13.20;;;0.10;86.00;;;;;;5055514;28;20543;-60
2020/12/26 06:15:48;;;;;;;18.60;11.60;;;0.20;85.70;;;;;;5054272;28;20618;-58
2020/12/26 06:18:15;;;;;;;19.40;11.80;;;0.30;85.50;;;;;;5038249;28;20064;-57
2020/12/26 06:20:42;;;;;;;20.10;12.05;;;0.20;85.30;;;;;;5055017;28;20101;-57
2020/12/26 06:23:14;;;;;;;21.42;12.73;;;0.20;85.70;;;;;;5054312;28;20029;-58
2020/12/26 06:25:43;;;;;;;24.17;12.10;;;0.10;86.20;;;;;;5053382;28;20041;-61
2020/12/26 06:28:26;;;;;;;20.55;12.65;;;0.10;86.10;;;;;;5053407;28;20060;-61
2020/12/26 06:30:53;;;;;;;22.48;11.60;;;0.20;86.10;;;;;;5053320;28;20037;-62
2020/12/26 06:33:23;;;;;;;17.90;11.15;;;0.20;85.90;;;;;;5053285;28;20477;-62
2020/12/26 06:35:50;;;;;;;17.90;11.20;;;0.30;85.80;;;;;;5052040;28;20037;-60
2020/12/26 06:38:23;;;;;;;16.92;10.68;;;0.20;85.70;;;;;;5050889;28;20447;-60
2020/12/26 06:41:04;;;;;;;18.15;10.50;;;0.10;86.80;;;;;;5033526;28;20082;-61
2020/12/26 06:43:50;;;;;;;17.55;11.38;;;0.30;86.00;;;;;;5031397;28;20037;-60
2020/12/26 06:46:21;;;;;;;16.10;10.50;;;0.20;85.90;;;;;;5033056;28;20026;-61
2020/12/26 06:48:52;;;;;;;16.50;10.65;;;0.30;85.90;;;;;;5056443;28;20028;-62
2020/12/26 06:51:36;;;;;;;18.33;11.18;;;0.30;85.60;;;;;;5073139;28;20024;-60
2020/12/26 06:54:04;;;;;;;16.35;10.40;;;0.40;85.40;;;;;;5062729;28;20208;-63
2020/12/26 06:56:32;;;;;;;21.00;11.45;;;0.30;85.70;;;;;;5052956;28;20488;-62
2020/12/26 06:59:08;;;;;;;18.02;10.05;;;0.40;85.70;;;;;;5052754;28;20057;-61
2020/12/26 07:01:45;;;;;;;18.45;10.68;;;0.40;85.50;;;;;;5035147;28;20039;-59
2020/12/26 07:04:19;;;;;;;17.95;10.48;;;0.40;85.40;;;;;;5052432;28;20460;-61
2020/12/26 07:06:55;;;;;;;17.88;9.55;;;0.30;85.70;;;;;;5052711;28;20043;-59
2020/12/26 07:09:50;;;;;;;15.82;9.70;;;0.30;85.90;;;;;;5052467;28;20120;-61
2020/12/26 07:12:16;;;;;;;17.90;9.97;;;0.20;86.30;;;;;;5018169;28;20049;-61
2020/12/26 07:14:45;;;;;;;14.35;9.60;;;0.30;86.30;;;;;;5052065;28;20275;-61
2020/12/26 07:17:13;;;;;;;16.08;10.05;;;0.20;86.50;;;;;;5052460;28;20021;-63
2020/12/26 07:19:43;;;;;;;17.80;9.50;;;0.30;86.20;;;;;;5052315;28;20044;-61
2020/12/26 07:22:28;;;;;;;16.23;9.93;;;0.40;85.90;;;;;;5052714;28;20125;-61
2020/12/26 07:24:55;;;;;;;;;;;0.40;86.00;;;;;;5036787;28;20044;-62
2020/12/26 07:27:31;;;;;;;16.92;9.40;;;0.40;85.80;;;;;;5052549;28;19913;-61
2020/12/26 07:30:17;;;;;;;14.43;9.30;;;0.40;86.00;;;;;;5052314;28;20033;-63
2020/12/26 07:32:50;;;;;;;20.65;10.43;;;0.40;85.80;;;;;;5052297;28;20150;-63
2020/12/26 07:35:16;;;;;;;16.92;9.10;;;0.40;86.40;;;;;;5051951;28;20336;-59
2020/12/26 07:37:43;;;;;;;14.45;8.90;;;0.50;85.90;;;;;;5034884;28;20108;-59
2020/12/26 07:40:14;;;;;;;14.93;9.32;;;0.50;85.80;;;;;;5052357;28;20396;-60
2020/12/26 07:42:42;;;;;;;16.67;10.10;;;0.60;85.70;;;;;;5052441;28;20506;-61
2020/12/26 07:45:09;;;;;;;14.40;9.45;;;0.60;85.60;;;;;;5051545;28;20065;-61
2020/12/26 07:47:49;;;;;;;16.13;9.45;;;0.50;86.10;;;;;;5054024;28;20043;-62
2020/12/26 07:50:16;;;;;;;17.40;10.60;;;0.60;86.10;;;;;;5072722;28;20466;-62
2020/12/26 07:53:05;;;;;;;17.00;9.70;;;0.60;86.30;;;;;;5072205;28;20403;-60
2020/12/26 07:55:31;;;;;;;21.20;11.02;;;0.60;86.00;;;;;;5032558;28;20032;-59
2020/12/26 07:58:02;;;;;;;15.63;8.73;;;0.60;86.30;;;;;;5032360;28;20033;-60
2020/12/26 08:00:30;;;;;;;17.75;9.98;;;0.70;86.10;;;;;;5031896;28;20476;-62
2020/12/26 08:02:59;;;;;;;13.77;9.57;;;0.60;86.70;;;;;;5032477;28;20036;-56
2020/12/26 08:05:27;;;;;;;14.50;9.65;;;0.50;87.40;;;;;;5032398;28;20037;-62
2020/12/26 08:07:53;;;;;;;19.50;10.40;;;0.70;86.70;;;;;;5034159;28;20029;-59
2020/12/26 08:10:19;;;;;;;20.58;11.80;;;0.80;86.20;;;;;;5018048;28;20090;-60
2020/12/26 08:12:56;;;;;;;15.10;9.00;;;0.80;86.10;;;;;;5019129;28;20507;-59
2020/12/26 08:15:27;;;;;;;16.50;10.20;;;0.80;86.20;;;;;;5036386;28;20030;-58
2020/12/26 08:17:59;;;;;;;19.10;10.23;;;0.80;86.20;;;;;;5034583;28;20022;-60
2020/12/26 08:20:26;;;;;;;13.57;9.38;;;0.90;85.80;;;;;;5032719;28;20120;-59
2020/12/26 08:22:52;;;;;;;16.75;9.25;;;1.00;85.60;;;;;;5032703;28;20497;-63
2020/12/26 08:25:20;;;;;;;15.00;9.20;;;0.90;86.10;;;;;;5033001;28;20040;-63
2020/12/26 08:27:47;;;;;;;12.57;8.18;;;1.00;85.80;;;;;;5052200;28;20037;-61
2020/12/26 08:30:19;;;;;;;18.65;9.77;;;1.10;85.90;;;;;;5052398;28;20040;-61
2020/12/26 08:33:13;;;;;;;15.18;8.88;;;1.10;85.40;;;;;;5052561;28;20029;-60
2020/12/26 08:35:44;;;;;;;13.85;8.65;;;1.10;85.70;;;;;;5052203;28;20120;-61
2020/12/26 08:38:20;;;;;;;14.10;8.63;;;1.10;85.70;;;;;;5052987;28;20392;-60
2020/12/26 08:40:53;;;;;;;18.67;9.05;;;1.20;85.40;;;;;;5051926;28;20213;-60
2020/12/26 08:43:19;;;;;;;19.48;9.80;;;1.30;85.10;;;;;;5051532;28;20451;-61
2020/12/26 08:45:45;;;;;;;16.65;9.02;;;1.40;84.60;;;;;;5051392;28;20036;-60
2020/12/26 08:48:19;;;;;;;15.30;9.07;;;1.40;84.50;;;;;;5056946;28;20028;-63
2020/12/26 08:50:55;;;;;;;16.05;9.55;;;1.50;84.20;;;;;;5071944;28;20039;-62
2020/12/26 08:53:22;;;;;;;16.60;8.93;;;1.50;84.10;;;;;;5067370;28;20037;-61
2020/12/26 08:55:56;;;;;;;21.25;9.35;;;1.20;85.40;;;;;;5033692;28;20025;-63
2020/12/26 08:58:30;;;;;;;17.13;9.13;;;1.30;85.10;;;;;;5051929;28;20029;-62
2020/12/26 09:00:58;;;;;;;13.17;8.87;;;1.30;85.10;;;;;;5036821;28;20075;-60
2020/12/26 09:03:26;;;;;;;17.65;10.00;;;1.40;85.10;;;;;;5055548;28;20039;-59
2020/12/26 09:05:53;;;;;;;16.85;9.50;;;1.40;85.10;;;;;;5055309;28;20037;-58
2020/12/26 09:08:18;;;;;;;16.75;9.13;;;1.50;85.00;;;;;;5056036;28;20180;-57
2020/12/26 09:10:56;;;;;;;14.85;8.60;;;1.50;85.20;;;;;;5055617;28;20060;-58
2020/12/26 09:13:30;;;;;;;15.70;8.85;;;1.50;84.90;;;;;;5037199;28;20469;-60
2020/12/26 09:15:57;;;;;;;14.50;8.33;;;1.60;85.20;;;;;;5054858;28;20035;-60
2020/12/26 09:18:25;;;;;;;16.27;9.25;;;1.60;84.80;;;;;;5055047;28;20057;-62
2020/12/26 09:21:00;;;;;;;14.60;8.85;;;1.70;84.50;;;;;;5055212;28;20040;-59
2020/12/26 09:23:34;;;;;;;15.38;8.82;;;1.80;84.30;;;;;;5054999;28;20045;-63
2020/12/26 09:26:21;;;;;;;15.57;9.00;;;1.70;85.00;;;;;;5038736;28;20075;-62
2020/12/26 09:28:46;;;;;;;15.40;8.80;;;1.70;85.40;;;;;;5056243;28;20033;-58
2020/12/26 09:31:13;;;;;;;14.80;7.80;;;1.50;85.70;;;;;;5064501;28;20029;-62
2020/12/26 09:33:40;;;;;;;12.70;8.80;;;1.60;85.80;;;;;;5068419;28;20032;-60
2020/12/26 09:36:08;;;;;;;14.38;8.02;;;1.60;85.50;;;;;;5072116;28;20025;-63
2020/12/26 09:38:33;;;;;;;14.13;8.20;;;1.80;84.90;;;;;;5044999;28;20047;-60
2020/12/26 09:41:12;;;;;;;12.93;7.97;;;1.70;84.70;;;;;;5060393;28;20504;-61
2020/12/26 09:43:38;;;;;;;15.88;8.70;;;1.80;84.70;;;;;;5057288;28;20434;-62
2020/12/26 09:46:04;;;;;;;11.07;7.43;;;1.80;84.70;;;;;;5055079;28;20036;-63
2020/12/26 09:48:29;;;;;;;13.65;7.45;;;1.80;84.90;;;;;;5064024;28;20037;-61
2020/12/26 09:50:55;;;;;;;15.02;8.48;;;1.70;85.20;;;;;;5057020;28;20047;-61
2020/12/26 09:53:20;;;;;;;14.07;8.07;;;1.80;85.10;;;;;;5071615;28;20033;-60
2020/12/26 09:55:46;;;;;;;18.45;9.13;;;1.80;85.00;;;;;;5054688;28;20037;-59
2020/12/26 09:58:11;;;;;;;14.02;8.75;;;1.80;85.40;;;;;;5054508;28;20059;-60
2020/12/26 10:00:40;;;;;;;12.20;7.50;;;1.80;85.20;;;;;;5054939;28;20155;-60
2020/12/26 10:03:05;;;;;;;12.88;8.50;;;1.80;85.30;;;;;;5054751;28;20147;-58
2020/12/26 10:05:31;;;;;;;15.05;8.40;;;1.90;85.40;;;;;;5054082;28;20112;-61
2020/12/26 10:07:57;;;;;;;14.05;7.60;;;2.00;85.00;;;;;;5054371;28;20431;-57
2020/12/26 10:10:22;;;;;;;11.93;7.90;;;2.00;85.30;;;;;;5054220;28;20045;-60
2020/12/26 10:12:48;;;;;;;11.77;8.02;;;2.10;85.00;;;;;;5036372;28;20044;-60
2020/12/26 10:15:18;;;;;;;13.25;7.88;;;2.20;84.90;;;;;;5054023;28;20047;-60
2020/12/26 10:17:44;;;;;;;14.40;8.20;;;2.10;85.00;;;;;;5054415;28;20029;-59
2020/12/26 10:20:10;;;;;;;16.55;8.23;;;2.20;84.80;;;;;;5054421;28;20048;-58
2020/12/26 10:22:36;;;;;;;19.48;9.93;;;2.30;84.60;;;;;;5041495;28;20025;-62
2020/12/26 10:25:01;;;;;;;13.98;8.23;;;2.30;84.80;;;;;;5046588;28;20041;-62
2020/12/26 10:27:27;;;;;;;15.43;9.35;;;2.40;84.70;;;;;;5048623;28;20032;-62
2020/12/26 10:29:52;;;;;;;16.30;8.20;;;2.30;85.00;;;;;;5065809;28;20052;-61
2020/12/26 10:32:18;;;;;;;13.80;8.48;;;2.40;85.00;;;;;;5056044;28;20021;-60
2020/12/26 10:34:44;;;;;;;21.85;11.70;;;2.40;84.90;;;;;;5054307;28;20037;-64
2020/12/26 10:37:12;;;;;;;11.90;7.68;;;2.40;85.10;;;;;;5036186;28;20028;-63
2020/12/26 10:39:38;;;;;;;11.85;7.95;;;2.50;85.20;;;;;;5035964;28;20061;-61
2020/12/26 10:42:03;;;;;;;13.38;8.25;;;2.40;85.00;;;;;;5054237;28;20283;-62
2020/12/26 10:44:29;;;;;;;18.25;8.52;;;2.20;85.80;;;;;;5051348;28;20129;-64
2020/12/26 10:46:54;;;;;;;14.63;8.35;;;2.30;85.60;;;;;;5053588;28;20131;-63
2020/12/26 10:49:20;;;;;;;17.20;8.25;;;2.40;84.80;;;;;;5069649;28;20041;-63
2020/12/26 10:51:49;;;;;;;13.85;8.43;;;2.40;84.90;;;;;;5073357;28;20032;-63
2020/12/26 10:54:15;;;;;;;14.85;8.43;;;2.50;84.50;;;;;;5061479;28;20515;-64
2020/12/26 10:56:48;;;;;;;15.07;7.75;;;2.40;85.00;;;;;;5053936;28;20037;-63
2020/12/26 10:59:14;;;;;;;12.35;7.85;;;2.40;85.10;;;;;;5053565;28;20104;-62
2020/12/26 11:01:40;;;;;;;15.30;8.80;;;2.30;85.10;;;;;;5053873;28;20065;-62
2020/12/26 11:04:06;;;;;;;14.35;8.95;;;2.40;84.90;;;;;;5052804;28;20028;-59
2020/12/26 11:06:32;;;;;;;15.95;8.70;;;2.50;84.30;;;;;;5035379;28;20036;-59
2020/12/26 11:09:04;;;;;;;12.00;8.00;;;2.50;84.50;;;;;;5036508;28;20037;-59
2020/12/26 11:11:44;;;;;;;15.90;7.97;;;2.50;84.50;;;;;;5055156;28;20106;-62
2020/12/26 11:14:16;;;;;;;13.23;7.53;;;2.40;84.30;;;;;;5038578;28;20040;-59
2020/12/26 11:16:49;;;;;;;13.90;8.27;;;2.50;84.20;;;;;;5037124;28;20082;-61
2020/12/26 11:19:16;;;;;;;13.27;7.80;;;2.50;84.10;;;;;;5052719;28;20404;-60
2020/12/26 11:21:42;;;;;;;10.88;8.40;;;2.50;83.80;;;;;;5053066;28;20039;-59
2020/12/26 11:24:08;;;;;;;12.10;7.38;;;2.50;84.20;;;;;;5052777;28;20033;-58
2020/12/26 11:26:34;;;;;;;13.13;9.38;;;2.60;83.70;;;;;;5052979;28;20037;-60
2020/12/26 11:29:00;;;;;;;12.45;7.43;;;2.60;83.80;;;;;;5038850;28;20044;-61
2020/12/26 11:31:25;;;;;;;13.40;7.93;;;2.50;84.30;;;;;;5056516;28;20492;-61
2020/12/26 11:33:52;;;;;;;13.68;8.60;;;2.60;84.20;;;;;;5059614;28;20036;-61
2020/12/26 11:36:21;;;;;;;17.83;10.18;;;2.80;83.90;;;;;;5059380;28;20033;-61
2020/12/26 11:38:47;;;;;;;14.27;7.70;;;2.90;83.00;;;;;;5052883;28;20078;-58
2020/12/26 11:41:17;;;;;;;14.48;7.80;;;2.80;83.00;;;;;;5052326;28;20036;-61
2020/12/26 11:43:43;;;;;;;12.57;8.00;;;2.90;83.10;;;;;;5049917;28;20395;-62
2020/12/26 11:46:12;;;;;;;13.80;8.32;;;3.00;82.70;;;;;;5051649;28;20499;-62
2020/12/26 11:48:38;;;;;;;17.05;9.75;;;2.90;82.60;;;;;;5062222;28;20043;-60
2020/12/26 11:51:05;;;;;;;14.68;9.45;;;2.70;83.10;;;;;;5072096;28;20036;-59
2020/12/26 11:53:31;;;;;;;14.38;10.00;;;2.70;83.30;;;;;;5066586;28;20032;-61
2020/12/26 11:55:57;;;;;;;16.83;9.68;;;2.60;84.30;;;;;;5051913;28;20104;-62
2020/12/26 11:58:23;;;;;;;17.75;9.70;;;2.70;83.90;;;;;;5052145;28;20414;-59
2020/12/26 12:00:50;;;;;;;15.25;10.02;;;2.60;83.70;;;;;;5051736;28;20052;-61
2020/12/26 12:03:16;;;;;;;17.23;10.18;;;2.60;83.80;;;;;;5052595;28;20102;-62
2020/12/26 12:05:42;;;;;;;16.52;11.98;;;2.50;83.90;;;;;;5052446;28;20388;-62
2020/12/26 12:08:07;;;;;;;19.23;11.65;;;2.60;83.40;;;;;;5053351;28;20044;-59
2020/12/26 12:10:33;;;;;;;20.50;11.30;;;2.60;83.70;;;;;;5052118;28;20033;-60
2020/12/26 12:13:01;;;;;;;19.52;12.30;;;2.40;84.20;;;;;;5052196;28;20032;-62
2020/12/26 12:15:27;;;;;;;22.00;12.07;;;2.50;84.60;;;;;;5033781;28;20438;-62
2020/12/26 12:17:52;;;;;;;21.95;11.90;;;2.40;84.70;;;;;;5052118;28;20032;-61
2020/12/26 12:20:18;;;;;;;20.88;13.73;;;2.40;84.50;;;;;;5051629;28;20082;-62
2020/12/26 12:22:43;;;;;;;24.00;13.63;;;2.50;84.00;;;;;;5034289;28;20124;-60
2020/12/26 12:25:09;;;;;;;21.55;13.18;;;2.40;84.70;;;;;;5051536;28;20342;-62
2020/12/26 12:27:34;;;;;;;24.33;13.20;;;2.50;84.00;;;;;;5052266;28;20396;-60
2020/12/26 12:30:00;;;;;;;23.67;13.65;;;2.50;84.50;;;;;;5051614;28;20033;-61
2020/12/26 12:32:25;;;;;;;27.30;14.30;;;2.40;84.90;;;;;;5051778;28;20029;-60
2020/12/26 12:34:51;;;;;;;23.17;13.02;;;2.50;84.30;;;;;;5035149;28;20032;-63
2020/12/26 12:37:17;;;;;;;25.80;14.10;;;2.50;84.30;;;;;;5056225;28;20025;-63
2020/12/26 12:39:42;;;;;;;26.52;15.23;;;2.60;83.90;;;;;;5055952;28;20033;-61
2020/12/26 12:42:08;;;;;;;24.95;15.13;;;2.70;83.60;;;;;;5055787;28;20110;-63
2020/12/26 12:44:34;;;;;;;23.83;14.25;;;2.70;83.80;;;;;;5055155;28;20312;-62
2020/12/26 12:47:01;;;;;;;22.65;15.05;;;2.60;84.10;;;;;;5054536;28;20029;-64